Placerville, Colorado
Current Conditions -  °F | °C
As of 3:55 PM on Thursday 23 Oct 2014 (Local Time) from KTEX Reporting Station
Clear Clear  
Wind Chill: 60°   Ceiling: Unl
Heat Index: 60°   Visibility: 10mi
Dew Point: 30°   Wind: 12mph
Humidity: 32%   Direction: 260°W
Pressure: 30.4"   Gusts: 18mph
Location:  38.02°N, 108.05°W
Report Text: KTEX 232155Z AUTO 26010G16KT 10SM CLR 15/M01 A3040 RMK AO2 T01531012
Loading
Personal Weather Stations






























Interactive Weather Map
Tropical Storm Tracking
New forecast layout! Learn more

10-Day Weather Forecast

Advertisements
Track Severe Weather on mobile